sensor_id;sensor_type;location;lat;lon;timestamp;pressure;altitude;pressure_sealevel;temperature;humidity
69318;BME280;56457;52.190;4.440;2023-03-15T00:00:57;101280.28;;;3.59;100.00
69318;BME280;56457;52.190;4.440;2023-03-15T00:01:58;101284.53;;;3.55;100.00
69318;BME280;56457;52.190;4.440;2023-03-15T00:02:58;101288.88;;;3.56;100.00
69318;BME280;56457;52.190;4.440;2023-03-15T00:03:58;101291.34;;;3.51;100.00
69318;BME280;56457;52.190;4.440;2023-03-15T00:04:58;101294.06;;;3.56;100.00
69318;BME280;56457;52.190;4.440;2023-03-15T00:05:59;101295.88;;;3.59;100.00
69318;BME280;56457;52.190;4.440;2023-03-15T00:06:59;101298.59;;;3.63;100.00
69318;BME280;56457;52.190;4.440;2023-03-15T00:08:00;101301.00;;;3.57;100.00
69318;BME280;56457;52.190;4.440;2023-03-15T00:09:01;101296.63;;;3.55;100.00
69318;BME280;56457;52.190;4.440;2023-03-15T00:10:02;101298.22;;;3.49;100.00
69318;BME280;56457;52.190;4.440;2023-03-15T00:11:03;101302.41;;;3.46;100.00
69318;BME280;56457;52.190;4.440;2023-03-15T00:12:04;101302.28;;;3.41;100.00
69318;BME280;56457;52.190;4.440;2023-03-15T00:13:04;101307.22;;;3.32;100.00
69318;BME280;56457;52.190;4.440;2023-03-15T00:14:04;101305.31;;;3.27;100.00
69318;BME280;56457;52.190;4.440;2023-03-15T00:15:05;101304.31;;;3.21;100.00
69318;BME280;56457;52.190;4.440;2023-03-15T00:16:05;101309.69;;;3.28;100.00
69318;BME280;56457;52.190;4.440;2023-03-15T00:17:06;101312.16;;;3.23;100.00
69318;BME280;56457;52.190;4.440;2023-03-15T00:18:06;101307.66;;;3.17;100.00
69318;BME280;56457;52.190;4.440;2023-03-15T00:19:06;101309.97;;;3.08;100.00
69318;BME280;56457;52.190;4.440;2023-03-15T00:20:07;101310.81;;;3.07;100.00
69318;BME280;56457;52.190;4.440;2023-03-15T00:21:07;101311.66;;;3.06;100.00
69318;BME280;56457;52.190;4.440;2023-03-15T00:22:08;101316.03;;;3.09;100.00
69318;BME280;56457;52.190;4.440;2023-03-15T00:23:08;101310.88;;;3.10;100.00
69318;BME280;56457;52.190;4.440;2023-03-15T00:24:09;101313.59;;;3.13;100.00
69318;BME280;56457;52.190;4.440;2023-03-15T00:25:10;101307.53;;;3.13;100.00
69318;BME280;56457;52.190;4.440;2023-03-15T00:26:11;101314.38;;;3.11;100.00
69318;BME280;56457;52.190;4.440;2023-03-15T00:27:11;101317.78;;;3.10;100.00
69318;BME280;56457;52.190;4.440;2023-03-15T00:28:11;101322.16;;;3.11;100.00
69318;BME280;56457;52.190;4.440;2023-03-15T00:29:12;101318.66;;;3.10;100.00
69318;BME280;56457;52.190;4.440;2023-03-15T00:30:12;101328.16;;;3.10;100.00
69318;BME280;56457;52.190;4.440;2023-03-15T00:31:16;101330.81;;;3.11;100.00
69318;BME280;56457;52.190;4.440;2023-03-15T00:32:17;101331.78;;;3.15;100.00
69318;BME280;56457;52.190;4.440;2023-03-15T00:33:18;101334.41;;;3.16;100.00
69318;BME280;56457;52.190;4.440;2023-03-15T00:34:18;101328.31;;;3.14;100.00
69318;BME280;56457;52.190;4.440;2023-03-15T00:35:23;101331.81;;;3.16;100.00
69318;BME280;56457;52.190;4.440;2023-03-15T00:36:23;101328.31;;;3.14;100.00
69318;BME280;56457;52.190;4.440;2023-03-15T00:37:23;101327.56;;;3.18;100.00
69318;BME280;56457;52.190;4.440;2023-03-15T00:38:24;101331.88;;;3.18;100.00
69318;BME280;56457;52.190;4.440;2023-03-15T00:39:25;101331.06;;;3.20;100.00
69318;BME280;56457;52.190;4.440;2023-03-15T00:40:25;101334.59;;;3.22;100.00
69318;BME280;56457;52.190;4.440;2023-03-15T00:41:25;101336.44;;;3.27;100.00
69318;BME280;56457;52.190;4.440;2023-03-15T00:42:27;101329.56;;;3.29;100.00
69318;BME280;56457;52.190;4.440;2023-03-15T00:43:27;101335.75;;;3.32;100.00
69318;BME280;56457;52.190;4.440;2023-03-15T00:44:27;101328.94;;;3.36;100.00
69318;BME280;56457;52.190;4.440;2023-03-15T00:45:28;101328.94;;;3.36;100.00
69318;BME280;56457;52.190;4.440;2023-03-15T00:46:28;101327.31;;;3.39;100.00
69318;BME280;56457;52.190;4.440;2023-03-15T00:47:28;101330.88;;;3.43;100.00
69318;BME280;56457;52.190;4.440;2023-03-15T00:48:29;101328.41;;;3.47;100.00
69318;BME280;56457;52.190;4.440;2023-03-15T00:49:30;101325.03;;;3.50;100.00
69318;BME280;56457;52.190;4.440;2023-03-15T00:50:31;101321.69;;;3.54;100.00
69318;BME280;56457;52.190;4.440;2023-03-15T00:51:31;101319.91;;;3.53;100.00
69318;BME280;56457;52.190;4.440;2023-03-15T00:52:33;101318.25;;;3.55;100.00
69318;BME280;56457;52.190;4.440;2023-03-15T00:53:35;101318.25;;;3.55;100.00
69318;BME280;56457;52.190;4.440;2023-03-15T00:54:36;101319.16;;;3.56;100.00
69318;BME280;56457;52.190;4.440;2023-03-15T00:55:36;101321.69;;;3.54;100.00
69318;BME280;56457;52.190;4.440;2023-03-15T00:56:36;101328.66;;;3.55;100.00
69318;BME280;56457;52.190;4.440;2023-03-15T00:57:36;101326.91;;;3.54;100.00
69318;BME280;56457;52.190;4.440;2023-03-15T00:58:37;101336.28;;;3.50;100.00
69318;BME280;56457;52.190;4.440;2023-03-15T00:59:37;101333.56;;;3.46;100.00
69318;BME280;56457;52.190;4.440;2023-03-15T01:00:38;101337.88;;;3.45;100.00
69318;BME280;56457;52.190;4.440;2023-03-15T01:01:38;101340.41;;;3.44;100.00
69318;BME280;56457;52.190;4.440;2023-03-15T01:02:43;101337.81;;;3.44;100.00
69318;BME280;56457;52.190;4.440;2023-03-15T01:03:44;101334.31;;;3.42;100.00
69318;BME280;56457;52.190;4.440;2023-03-15T01:04:44;101329.03;;;3.39;100.00
69318;BME280;56457;52.190;4.440;2023-03-15T01:05:44;101338.50;;;3.37;100.00
69318;BME280;56457;52.190;4.440;2023-03-15T01:06:45;101340.25;;;3.38;100.00
69318;BME280;56457;52.190;4.440;2023-03-15T01:07:45;101341.09;;;3.37;100.00
69318;BME280;56457;52.190;4.440;2023-03-15T01:08:46;101347.16;;;3.37;100.00
69318;BME280;56457;52.190;4.440;2023-03-15T01:09:46;101346.28;;;3.37;100.00
69318;BME280;56457;52.190;4.440;2023-03-15T01:10:46;101349.81;;;3.40;100.00
69318;BME280;56457;52.190;4.440;2023-03-15T01:11:46;101350.63;;;3.38;100.00
69318;BME280;56457;52.190;4.440;2023-03-15T01:12:47;101354.94;;;3.37;100.00
69318;BME280;56457;52.190;4.440;2023-03-15T01:13:47;101361.88;;;3.38;100.00
69318;BME280;56457;52.190;4.440;2023-03-15T01:14:47;101351.53;;;3.40;100.00
69318;BME280;56457;52.190;4.440;2023-03-15T01:15:47;101355.81;;;3.38;100.00
69318;BME280;56457;52.190;4.440;2023-03-15T01:16:48;101364.44;;;3.37;100.00
69318;BME280;56457;52.190;4.440;2023-03-15T01:17:48;101361.06;;;3.41;100.00
69318;BME280;56457;52.190;4.440;2023-03-15T01:18:48;101356.72;;;3.40;100.00
69318;BME280;56457;52.190;4.440;2023-03-15T01:19:50;101365.31;;;3.37;100.00
69318;BME280;56457;52.190;4.440;2023-03-15T01:20:51;101367.91;;;3.37;100.00
69318;BME280;56457;52.190;4.440;2023-03-15T01:21:51;101369.63;;;3.37;100.00
69318;BME280;56457;52.190;4.440;2023-03-15T01:22:52;101366.94;;;3.35;100.00
69318;BME280;56457;52.190;4.440;2023-03-15T01:23:52;101377.31;;;3.35;100.00
69318;BME280;56457;52.190;4.440;2023-03-15T01:24:53;101375.56;;;3.34;100.00
69318;BME280;56457;52.190;4.440;2023-03-15T01:25:53;101375.63;;;3.36;100.00
69318;BME280;56457;52.190;4.440;2023-03-15T01:26:54;101379.00;;;3.33;100.00
69318;BME280;56457;52.190;4.440;2023-03-15T01:27:54;101379.84;;;3.32;100.00
69318;BME280;56457;52.190;4.440;2023-03-15T01:28:54;101374.63;;;3.31;100.00
69318;BME280;56457;52.190;4.440;2023-03-15T01:29:54;101373.81;;;3.33;100.00
69318;BME280;56457;52.190;4.440;2023-03-15T01:30:55;101372.91;;;3.31;100.00
69318;BME280;56457;52.190;4.440;2023-03-15T01:31:55;101377.25;;;3.32;100.00
69318;BME280;56457;52.190;4.440;2023-03-15T01:32:55;101377.25;;;3.32;100.00
69318;BME280;56457;52.190;4.440;2023-03-15T01:33:56;101378.09;;;3.31;100.00
69318;BME280;56457;52.190;4.440;2023-03-15T01:34:57;101375.50;;;3.31;100.00
69318;BME280;56457;52.190;4.440;2023-03-15T01:36:02;101380.63;;;3.30;100.00
69318;BME280;56457;52.190;4.440;2023-03-15T01:37:03;101385.91;;;3.33;100.00
69318;BME280;56457;52.190;4.440;2023-03-15T01:38:03;101394.53;;;3.32;100.00
69318;BME280;56457;52.190;4.440;2023-03-15T01:39:04;101385.81;;;3.30;100.00
69318;BME280;56457;52.190;4.440;2023-03-15T01:40:04;101387.59;;;3.31;100.00
69318;BME280;56457;52.190;4.440;2023-03-15T01:41:05;101385.91;;;3.33;100.00
69318;BME280;56457;52.190;4.440;2023-03-15T01:42:06;101390.22;;;3.32;100.00
69318;BME280;56457;52.190;4.440;2023-03-15T01:44:10;101387.69;;;3.35;100.00
69318;BME280;56457;52.190;4.440;2023-03-15T01:46:30;101400.78;;;3.38;100.00
69318;BME280;56457;52.190;4.440;2023-03-15T01:47:33;101397.31;;;3.38;100.00
69318;BME280;56457;52.190;4.440;2023-03-15T01:49:37;101396.44;;;3.37;100.00
69318;BME280;56457;52.190;4.440;2023-03-15T01:50:37;101402.38;;;3.35;100.00
69318;BME280;56457;52.190;4.440;2023-03-15T01:51:41;101398.13;;;3.37;100.00
69318;BME280;56457;52.190;4.440;2023-03-15T01:52:43;101405.91;;;3.37;100.00
69318;BME280;56457;52.190;4.440;2023-03-15T01:53:44;101402.44;;;3.36;100.00
69318;BME280;56457;52.190;4.440;2023-03-15T01:54:59;101402.38;;;3.35;100.00
69318;BME280;56457;52.190;4.440;2023-03-15T01:56:02;101411.19;;;3.40;100.00
69318;BME280;56457;52.190;4.440;2023-03-15T01:57:05;101411.19;;;3.40;100.00
69318;BME280;56457;52.190;4.440;2023-03-15T01:58:06;101412.94;;;3.41;100.00
69318;BME280;56457;52.190;4.440;2023-03-15T01:59:08;101408.59;;;3.40;100.00
69318;BME280;56457;52.190;4.440;2023-03-15T02:00:13;101417.31;;;3.42;100.00
69318;BME280;56457;52.190;4.440;2023-03-15T02:01:14;101416.41;;;3.41;100.00
69318;BME280;56457;52.190;4.440;2023-03-15T02:02:15;101412.94;;;3.41;100.00
69318;BME280;56457;52.190;4.440;2023-03-15T02:03:17;101417.38;;;3.43;100.00
69318;BME280;56457;52.190;4.440;2023-03-15T02:04:19;101414.72;;;3.42;100.00
69318;BME280;56457;52.190;4.440;2023-03-15T02:05:24;101412.94;;;3.41;100.00
69318;BME280;56457;52.190;4.440;2023-03-15T02:06:26;101412.91;;;3.39;100.00
69318;BME280;56457;52.190;4.440;2023-03-15T02:07:26;101415.47;;;3.38;100.00
69318;BME280;56457;52.190;4.440;2023-03-15T02:08:29;101414.63;;;3.39;100.00
69318;BME280;56457;52.190;4.440;2023-03-15T02:09:36;101417.25;;;3.40;100.00
69318;BME280;56457;52.190;4.440;2023-03-15T02:10:47;101412.13;;;3.42;100.00
69318;BME280;56457;52.190;4.440;2023-03-15T02:11:48;101414.78;;;3.43;100.00
69318;BME280;56457;52.190;4.440;2023-03-15T02:12:49;101422.44;;;3.40;100.00
69318;BME280;56457;52.190;4.440;2023-03-15T02:13:50;101421.59;;;3.41;100.00
69318;BME280;56457;52.190;4.440;2023-03-15T02:14:51;101423.50;;;3.47;100.00
69318;BME280;56457;52.190;4.440;2023-03-15T02:15:53;101425.22;;;3.46;100.00
69318;BME280;56457;52.190;4.440;2023-03-15T02:16:54;101412.44;;;3.53;100.00
69318;BME280;56457;52.190;4.440;2023-03-15T02:17:54;101420.22;;;3.53;100.00
69318;BME280;56457;52.190;4.440;2023-03-15T02:18:54;101427.13;;;3.52;100.00
69318;BME280;56457;52.190;4.440;2023-03-15T02:20:18;101415.97;;;3.55;100.00
69318;BME280;56457;52.190;4.440;2023-03-15T02:21:28;101419.50;;;3.57;100.00
69318;BME280;56457;52.190;4.440;2023-03-15T02:22:37;101412.63;;;3.59;100.00
69318;BME280;56457;52.190;4.440;2023-03-15T02:23:39;101419.53;;;3.58;100.00
69318;BME280;56457;52.190;4.440;2023-03-15T02:24:51;101422.16;;;3.60;100.00
69318;BME280;56457;52.190;4.440;2023-03-15T02:27:13;101414.38;;;3.60;100.00
69318;BME280;56457;52.190;4.440;2023-03-15T02:28:13;101417.03;;;3.61;100.00
69318;BME280;56457;52.190;4.440;2023-03-15T02:29:15;101414.38;;;3.60;100.00
69318;BME280;56457;52.190;4.440;2023-03-15T02:30:15;101417.03;;;3.61;100.00
69318;BME280;56457;52.190;4.440;2023-03-15T02:31:15;101417.94;;;3.63;100.00
69318;BME280;56457;52.190;4.440;2023-03-15T02:32:16;101410.16;;;3.63;100.00
69318;BME280;56457;52.190;4.440;2023-03-15T02:33:21;101412.81;;;3.65;100.00
69318;BME280;56457;52.190;4.440;2023-03-15T02:34:23;101418.88;;;3.65;100.00
69318;BME280;56457;52.190;4.440;2023-03-15T02:35:28;101418.09;;;3.68;100.00
69318;BME280;56457;52.190;4.440;2023-03-15T02:36:28;101418.94;;;3.67;100.00
69318;BME280;56457;52.190;4.440;2023-03-15T02:37:30;101420.63;;;3.66;100.00
69318;BME280;56457;52.190;4.440;2023-03-15T02:38:31;101421.56;;;3.68;100.00
69318;BME280;56457;52.190;4.440;2023-03-15T02:39:31;101427.63;;;3.69;100.00
69318;BME280;56457;52.190;4.440;2023-03-15T02:40:31;101427.59;;;3.67;100.00
69318;BME280;56457;52.190;4.440;2023-03-15T02:41:33;101425.91;;;3.69;100.00
69318;BME280;56457;52.190;4.440;2023-03-15T02:42:35;101423.41;;;3.72;100.00
69318;BME280;56457;52.190;4.440;2023-03-15T02:43:35;101427.84;;;3.76;100.00
69318;BME280;56457;52.190;4.440;2023-03-15T02:44:36;101427.84;;;3.76;100.00
69318;BME280;56457;52.190;4.440;2023-03-15T02:45:37;101429.59;;;3.77;100.00
69318;BME280;56457;52.190;4.440;2023-03-15T02:46:37;101433.97;;;3.78;100.00
69318;BME280;56457;52.190;4.440;2023-03-15T02:47:38;101431.38;;;3.78;100.00
69318;BME280;56457;52.190;4.440;2023-03-15T02:48:38;101436.56;;;3.78;100.00
69318;BME280;56457;52.190;4.440;2023-03-15T02:49:41;101429.59;;;3.77;100.00
69318;BME280;56457;52.190;4.440;2023-03-15T02:50:42;101436.63;;;3.80;100.00
69318;BME280;56457;52.190;4.440;2023-03-15T02:51:43;101439.25;;;3.82;100.00
69318;BME280;56457;52.190;4.440;2023-03-15T02:52:43;101440.13;;;3.82;100.00
69318;BME280;56457;52.190;4.440;2023-03-15T02:53:43;101437.56;;;3.84;100.00
69318;BME280;56457;52.190;4.440;2023-03-15T02:54:44;101437.69;;;3.87;100.00
69318;BME280;56457;52.190;4.440;2023-03-15T02:55:44;101440.50;;;3.94;100.00
69318;BME280;56457;52.190;4.440;2023-03-15T02:56:44;101445.50;;;3.88;100.00
69318;BME280;56457;52.190;4.440;2023-03-15T02:57:45;101441.28;;;3.92;100.00
69318;BME280;56457;52.190;4.440;2023-03-15T02:58:45;101442.16;;;3.92;100.00
69318;BME280;56457;52.190;4.440;2023-03-15T02:59:45;101447.38;;;3.92;100.00
69318;BME280;56457;52.190;4.440;2023-03-15T03:00:47;101445.66;;;3.93;100.00
69318;BME280;56457;52.190;4.440;2023-03-15T03:01:48;101449.16;;;3.95;100.00
69318;BME280;56457;52.190;4.440;2023-03-15T03:02:48;101441.47;;;3.98;100.00
69318;BME280;56457;52.190;4.440;2023-03-15T03:03:48;101446.66;;;3.98;100.00
69318;BME280;56457;52.190;4.440;2023-03-15T03:04:48;101449.28;;;3.99;100.00
69318;BME280;56457;52.190;4.440;2023-03-15T03:05:49;101453.66;;;4.00;100.00
69318;BME280;56457;52.190;4.440;2023-03-15T03:06:49;101457.16;;;4.02;100.00
69318;BME280;56457;52.190;4.440;2023-03-15T03:07:49;101463.22;;;4.03;100.00
69318;BME280;56457;52.190;4.440;2023-03-15T03:08:50;101467.47;;;3.99;100.00
69318;BME280;56457;52.190;4.440;2023-03-15T03:09:50;101469.13;;;3.97;100.00
69318;BME280;56457;52.190;4.440;2023-03-15T03:10:50;101475.28;;;4.01;100.00
69318;BME280;56457;52.190;4.440;2023-03-15T03:11:50;101476.09;;;3.98;100.00
69318;BME280;56457;52.190;4.440;2023-03-15T03:12:51;101480.41;;;3.98;100.00
69318;BME280;56457;52.190;4.440;2023-03-15T03:13:54;101489.97;;;3.99;100.00
69318;BME280;56457;52.190;4.440;2023-03-15T03:14:54;101490.69;;;3.95;100.00
69318;BME280;56457;52.190;4.440;2023-03-15T03:15:55;101481.16;;;3.94;100.00
69318;BME280;56457;52.190;4.440;2023-03-15T03:16:58;101485.50;;;3.95;100.00
69318;BME280;56457;52.190;4.440;2023-03-15T03:18:00;101489.75;;;3.91;100.00
69318;BME280;56457;52.190;4.440;2023-03-15T03:19:00;101484.56;;;3.91;100.00
69318;BME280;56457;52.190;4.440;2023-03-15T03:20:01;101480.06;;;3.86;100.00
69318;BME280;56457;52.190;4.440;2023-03-15T03:21:02;101488.72;;;3.86;100.00
69318;BME280;56457;52.190;4.440;2023-03-15T03:22:03;101493.75;;;3.82;100.00
69318;BME280;56457;52.190;4.440;2023-03-15T03:23:03;101492.78;;;3.78;100.00
69318;BME280;56457;52.190;4.440;2023-03-15T03:24:05;101497.09;;;3.77;100.00
69318;BME280;56457;52.190;4.440;2023-03-15T03:25:07;101497.97;;;3.78;100.00
69318;BME280;56457;52.190;4.440;2023-03-15T03:26:12;101501.44;;;3.78;100.00
69318;BME280;56457;52.190;4.440;2023-03-15T03:27:15;101491.97;;;3.79;100.00
69318;BME280;56457;52.190;4.440;2023-03-15T03:28:16;101497.09;;;3.77;100.00
69318;BME280;56457;52.190;4.440;2023-03-15T03:29:16;101497.94;;;3.76;100.00
69318;BME280;56457;52.190;4.440;2023-03-15T03:30:16;101494.31;;;3.71;100.00
69318;BME280;56457;52.190;4.440;2023-03-15T03:31:17;101500.31;;;3.69;100.00
69318;BME280;56457;52.190;4.440;2023-03-15T03:32:18;101502.78;;;3.66;100.00
69318;BME280;56457;52.190;4.440;2023-03-15T03:33:18;101507.94;;;3.64;100.00
69318;BME280;56457;52.190;4.440;2023-03-15T03:34:19;101502.59;;;3.60;100.00
69318;BME280;56457;52.190;4.440;2023-03-15T03:35:19;101511.31;;;3.62;100.00
69318;BME280;56457;52.190;4.440;2023-03-15T03:36:20;101505.25;;;3.61;100.00
69318;BME280;56457;52.190;4.440;2023-03-15T03:37:20;101511.19;;;3.57;100.00
69318;BME280;56457;52.190;4.440;2023-03-15T03:38:20;101505.06;;;3.55;100.00
69318;BME280;56457;52.190;4.440;2023-03-15T03:39:21;101510.16;;;3.52;100.00
69318;BME280;56457;52.190;4.440;2023-03-15T03:40:21;101510.16;;;3.52;100.00
69318;BME280;56457;52.190;4.440;2023-03-15T03:41:21;101521.31;;;3.49;100.00
69318;BME280;56457;52.190;4.440;2023-03-15T03:42:21;101519.50;;;3.47;100.00
69318;BME280;56457;52.190;4.440;2023-03-15T03:43:22;101523.03;;;3.49;100.00
69318;BME280;56457;52.190;4.440;2023-03-15T03:44:22;101518.75;;;3.51;100.00
69318;BME280;56457;52.190;4.440;2023-03-15T03:45:22;101521.31;;;3.49;100.00
69318;BME280;56457;52.190;4.440;2023-03-15T03:46:24;101531.66;;;3.48;100.00
69318;BME280;56457;52.190;4.440;2023-03-15T03:47:25;101532.47;;;3.47;100.00
69318;BME280;56457;52.190;4.440;2023-03-15T03:48:25;101527.28;;;3.47;100.00
69318;BME280;56457;52.190;4.440;2023-03-15T03:49:25;101535.06;;;3.47;100.00
69318;BME280;56457;52.190;4.440;2023-03-15T03:50:26;101537.75;;;3.50;100.00
69318;BME280;56457;52.190;4.440;2023-03-15T03:51:26;101528.16;;;3.47;100.00
69318;BME280;56457;52.190;4.440;2023-03-15T03:52:26;101536.78;;;3.46;100.00
69318;BME280;56457;52.190;4.440;2023-03-15T03:53:27;101542.84;;;3.47;100.00
69318;BME280;56457;52.190;4.440;2023-03-15T03:54:27;101546.31;;;3.47;100.00
69318;BME280;56457;52.190;4.440;2023-03-15T03:55:27;101550.06;;;3.56;100.00
69318;BME280;56457;52.190;4.440;2023-03-15T03:56:28;101542.34;;;3.59;100.00
69318;BME280;56457;52.190;4.440;2023-03-15T03:57:28;101544.03;;;3.57;100.00
69318;BME280;56457;52.190;4.440;2023-03-15T03:58:28;101552.69;;;3.57;100.00
69318;BME280;56457;52.190;4.440;2023-03-15T03:59:29;101551.13;;;3.62;100.00
69318;BME280;56457;52.190;4.440;2023-03-15T04:00:29;101562.34;;;3.61;100.00
69318;BME280;56457;52.190;4.440;2023-03-15T04:01:30;101554.50;;;3.60;100.00
69318;BME280;56457;52.190;4.440;2023-03-15T04:02:30;101565.84;;;3.63;100.00
69318;BME280;56457;52.190;4.440;2023-03-15T04:03:30;101562.38;;;3.63;100.00
69318;BME280;56457;52.190;4.440;2023-03-15T04:04:30;101571.06;;;3.63;100.00
69318;BME280;56457;52.190;4.440;2023-03-15T04:05:31;101566.84;;;3.67;100.00
69318;BME280;56457;52.190;4.440;2023-03-15T04:06:31;101566.78;;;3.65;100.00
69318;BME280;56457;52.190;4.440;2023-03-15T04:07:31;101571.13;;;3.66;100.00
69318;BME280;56457;52.190;4.440;2023-03-15T04:08:31;101565.13;;;3.67;100.00
69318;BME280;56457;52.190;4.440;2023-03-15T04:09:32;101565.06;;;3.66;100.00
69318;BME280;56457;52.190;4.440;2023-03-15T04:10:36;101563.41;;;3.68;100.00
69318;BME280;56457;52.190;4.440;2023-03-15T04:11:37;101565.22;;;3.70;100.00
69318;BME280;56457;52.190;4.440;2023-03-15T04:12:37;101571.31;;;3.72;100.00
69318;BME280;56457;52.190;4.440;2023-03-15T04:13:37;101573.13;;;3.73;100.00
69318;BME280;56457;52.190;4.440;2023-03-15T04:14:37;101574.88;;;3.74;100.00
69318;BME280;56457;52.190;4.440;2023-03-15T04:15:38;101580.81;;;3.72;100.00
69318;BME280;56457;52.190;4.440;2023-03-15T04:16:38;101572.25;;;3.73;100.00
69318;BME280;56457;52.190;4.440;2023-03-15T04:17:38;101579.13;;;3.72;100.00
69318;BME280;56457;52.190;4.440;2023-03-15T04:18:39;101573.72;;;3.66;100.00
69318;BME280;56457;52.190;4.440;2023-03-15T04:19:39;101576.13;;;3.60;100.00
69318;BME280;56457;52.190;4.440;2023-03-15T04:20:39;101588.28;;;3.61;100.00
69318;BME280;56457;52.190;4.440;2023-03-15T04:21:45;101577.84;;;3.60;100.00
69318;BME280;56457;52.190;4.440;2023-03-15T04:22:46;101581.22;;;3.57;100.00
69318;BME280;56457;52.190;4.440;2023-03-15T04:23:48;101585.59;;;3.58;100.00
69318;BME280;56457;52.190;4.440;2023-03-15T04:24:48;101589.84;;;3.56;100.00
69318;BME280;56457;52.190;4.440;2023-03-15T04:25:50;101585.50;;;3.55;100.00
69318;BME280;56457;52.190;4.440;2023-03-15T04:26:50;101582.78;;;3.52;100.00
69318;BME280;56457;52.190;4.440;2023-03-15T04:27:56;101585.34;;;3.50;100.00
69318;BME280;56457;52.190;4.440;2023-03-15T04:29:02;101589.66;;;3.50;100.00
69318;BME280;56457;52.190;4.440;2023-03-15T04:30:03;101582.75;;;3.50;100.00
69318;BME280;56457;52.190;4.440;2023-03-15T04:31:04;101590.50;;;3.49;100.00
69318;BME280;56457;52.190;4.440;2023-03-15T04:32:09;101593.97;;;3.49;100.00
69318;BME280;56457;52.190;4.440;2023-03-15T04:33:10;101598.16;;;3.46;100.00
69318;BME280;56457;52.190;4.440;2023-03-15T04:34:10;101596.34;;;3.43;100.00
69318;BME280;56457;52.190;4.440;2023-03-15T04:35:10;101598.06;;;3.43;100.00
69318;BME280;56457;52.190;4.440;2023-03-15T04:36:11;101597.19;;;3.42;100.00
69318;BME280;56457;52.190;4.440;2023-03-15T04:37:17;101604.19;;;3.45;100.00
69318;BME280;56457;52.190;4.440;2023-03-15T04:38:18;101604.13;;;3.43;100.00
69318;BME280;56457;52.190;4.440;2023-03-15T04:39:18;101605.84;;;3.43;100.00
69318;BME280;56457;52.190;4.440;2023-03-15T04:40:19;101609.19;;;3.40;100.00
69318;BME280;56457;52.190;4.440;2023-03-15T04:41:23;101607.44;;;3.39;100.00
69318;BME280;56457;52.190;4.440;2023-03-15T04:42:26;101611.88;;;3.42;100.00
69318;BME280;56457;52.190;4.440;2023-03-15T04:43:26;101613.56;;;3.41;100.00
69318;BME280;56457;52.190;4.440;2023-03-15T04:44:26;101613.34;;;3.35;100.00
69318;BME280;56457;52.190;4.440;2023-03-15T04:45:26;101616.91;;;3.37;100.00
69318;BME280;56457;52.190;4.440;2023-03-15T04:46:28;101614.31;;;3.37;100.00
69318;BME280;56457;52.190;4.440;2023-03-15T04:47:28;101618.53;;;3.35;100.00
69318;BME280;56457;52.190;4.440;2023-03-15T04:48:29;101614.31;;;3.37;100.00
69318;BME280;56457;52.190;4.440;2023-03-15T04:49:30;101616.16;;;3.41;100.00
69318;BME280;56457;52.190;4.440;2023-03-15T04:50:30;101623.22;;;3.45;100.00
69318;BME280;56457;52.190;4.440;2023-03-15T04:51:31;101619.59;;;3.40;100.00
69318;BME280;56457;52.190;4.440;2023-03-15T04:52:33;101623.88;;;3.40;100.00
69318;BME280;56457;52.190;4.440;2023-03-15T04:53:33;101624.72;;;3.39;100.00
69318;BME280;56457;52.190;4.440;2023-03-15T04:54:33;101627.28;;;3.37;100.00
69318;BME280;56457;52.190;4.440;2023-03-15T04:55:34;101627.44;;;3.42;100.00
69318;BME280;56457;52.190;4.440;2023-03-15T04:56:34;101632.00;;;3.49;100.00
69318;BME280;56457;52.190;4.440;2023-03-15T04:57:36;101627.66;;;3.48;100.00
69318;BME280;56457;52.190;4.440;2023-03-15T04:58:36;101625.84;;;3.47;100.00
69318;BME280;56457;52.190;4.440;2023-03-15T04:59:36;101632.00;;;3.49;100.00
69318;BME280;56457;52.190;4.440;2023-03-15T05:00:37;101633.63;;;3.47;100.00
69318;BME280;56457;52.190;4.440;2023-03-15T05:01:37;101636.09;;;3.42;100.00
69318;BME280;56457;52.190;4.440;2023-03-15T05:02:39;101637.84;;;3.43;100.00
69318;BME280;56457;52.190;4.440;2023-03-15T05:03:40;101642.09;;;3.41;100.00
69318;BME280;56457;52.190;4.440;2023-03-15T05:04:40;101642.84;;;3.37;100.00
69318;BME280;56457;52.190;4.440;2023-03-15T05:05:41;101649.78;;;3.38;100.00
69318;BME280;56457;52.190;4.440;2023-03-15T05:06:41;101645.44;;;3.37;100.00
69318;BME280;56457;52.190;4.440;2023-03-15T05:07:41;101647.97;;;3.36;100.00
69318;BME280;56457;52.190;4.440;2023-03-15T05:08:42;101650.63;;;3.37;100.00
69318;BME280;56457;52.190;4.440;2023-03-15T05:09:44;101652.34;;;3.37;100.00
69318;BME280;56457;52.190;4.440;2023-03-15T05:10:45;101648.03;;;3.37;100.00
69318;BME280;56457;52.190;4.440;2023-03-15T05:11:45;101649.81;;;3.40;100.00
69318;BME280;56457;52.190;4.440;2023-03-15T05:12:45;101655.03;;;3.40;100.00
69318;BME280;56457;52.190;4.440;2023-03-15T05:13:46;101655.03;;;3.40;100.00
69318;BME280;56457;52.190;4.440;2023-03-15T05:14:46;101654.94;;;3.37;100.00
69318;BME280;56457;52.190;4.440;2023-03-15T05:15:46;101651.53;;;3.39;100.00
69318;BME280;56457;52.190;4.440;2023-03-15T05:16:47;101654.19;;;3.41;100.00
69318;BME280;56457;52.190;4.440;2023-03-15T05:17:48;101657.59;;;3.40;100.00
69318;BME280;56457;52.190;4.440;2023-03-15T05:18:48;101663.59;;;3.37;100.00
69318;BME280;56457;52.190;4.440;2023-03-15T05:19:48;101656.69;;;3.38;100.00
69318;BME280;56457;52.190;4.440;2023-03-15T05:20:49;101658.34;;;3.36;100.00
69318;BME280;56457;52.190;4.440;2023-03-15T05:21:49;101661.09;;;3.40;100.00
69318;BME280;56457;52.190;4.440;2023-03-15T05:22:49;101667.94;;;3.38;100.00
69318;BME280;56457;52.190;4.440;2023-03-15T05:23:52;101670.50;;;3.37;100.00
69318;BME280;56457;52.190;4.440;2023-03-15T05:24:52;101672.00;;;3.30;100.00